Lemon Grove, CA (91945)

4:19 AM PDT on August 19, 2017 (GMT -0700)
Mount Vernon | | Change Station
Active Advisory: Beach Hazard Statement

Elev 430 ft 32.73 °N, 117.03 °W | Updated 14 seconds ago

Overcast
Overcast
64.9 °F
Feels Like 64.9 °F
N
2.0
Wind Variable Wind from East
Gusts 2.5 mph

Today
High -- | Low -- °F
--% Chance of Precip.
Yesterday
High -- | Low -- °F
Precip. -- in
Pressure 29.94 in
Visibility 9.0 miles
Clouds Overcast 1200 ft
Dew Point 65 °F
Humidity 99%
Rainfall 0.00 in
Snow Depth Not available.
6:14 AM 7:28 PM
Waning Crescent, 7% visible
METAR KMYF 191053Z AUTO 11003KT 9SM OVC012 21/16 A2995 RMK AO2 SLP136 T02060161
Pressure 29.94 in
Visibility 9.0 miles
Clouds Overcast 1200 ft
Dew Point 65 °F
Humidity 99%
Rainfall 0.00 in
Snow Depth Not available.
6:14 AM 7:28 PM
Waning Crescent, 7% visible
METAR KMYF 191053Z AUTO 11003KT 9SM OVC012 21/16 A2995 RMK AO2 SLP136 T02060161

Get Your Daily Forecast Email!

Thanks for signing up!

Be on the lookout for a verification email in your inbox.

You'll start receiving severe weather alerts in your inbox..

×

10-Day Weather Forecast

Almanac

Astronomy

Aug. 19, 2017 Rise Set
Actual Time
Civil Twilight
Nautical Twilight
Astronomical Twilight
Moon
Length of Visible Light
Length of Day
Tomorrow will be .
, % of the Moon is Illuminated

Today's Extremes

State Highs State Lows

Community

WunderPhotos

Category 6

Welcome to Category 6. This is the collective home for Weather Underground's featured writeups by Dr. Jeff Masters (right), Bob Henson (left), Chris Burt, and other regular contributors.

Nearby

Air Quality

  Air Quality AQ Index Pollutant
Not available.

Snow Depth

Station Depth Elevation

Earthquake Activity

City Distance Mag. Time & Date
Minimum magnitude displayed is 2.5.

Coastal Water Temperatures

Place Temperature

Stations

Nearby Weather Stations

Station Location Temp. Windchill Dew Point Humidity Wind Precip. Elev Updated Type
                   

Watches & Warnings

Beach Hazard Statement
Issued: 9:32 PM PDT Aug. 18, 2017 – National Weather Service

... Beach hazards statement remains in effect from Saturday
afternoon through Sunday evening...

* large high tides... minor tidal overflows and beach erosion
will be possible due to a large high tide forecast around 7
feet Saturday and Sunday evenings, between 8 and 9 PM.

* Impacts... minor tidal overflows and beach erosion could bring
standing water to beach and Harbor areas, including parking
lots and adjacent access roads that normally do not experience
overflows during high tide.

Precautionary/preparedness actions...

A beach hazards statement is issued when threats such as strong
rip currents... elevated surf heights... minor tidal overflow... or
lightning are possible at local beaches. Obey posted warning
signs and flags and talk to a lifeguard before swimming. Use
caution when in or near the water and always swim near a
lifeguard.